createdAt,value
2017-05-21T00:00:31.408Z,79.58
2017-05-21T00:01:12.305Z,79.49
2017-05-21T00:01:53.195Z,79
2017-05-21T00:02:34.073Z,79.77
2017-05-21T00:03:14.960Z,79.96
2017-05-21T00:03:55.855Z,79.81
2017-05-21T00:04:36.730Z,79.49
2017-05-21T00:05:17.621Z,79.87
2017-05-21T00:05:58.508Z,79.68
2017-05-21T00:06:39.395Z,79.29
2017-05-21T00:07:20.282Z,79.49
2017-05-21T00:08:01.172Z,79.87
2017-05-21T00:08:42.087Z,79.58
2017-05-21T00:09:22.973Z,79.58
2017-05-21T00:10:03.867Z,79.49
2017-05-21T00:10:44.761Z,79.96
2017-05-21T00:11:25.659Z,79.39
2017-05-21T00:12:06.551Z,79.39
2017-05-21T00:12:47.445Z,79
2017-05-21T00:13:28.323Z,79.39
2017-05-21T00:14:09.203Z,79
2017-05-21T00:14:50.085Z,79.39
2017-05-21T00:15:30.981Z,79.96
2017-05-21T00:16:11.873Z,79.87
2017-05-21T00:16:52.763Z,79.58
2017-05-21T00:17:33.645Z,79.49
2017-05-21T00:18:14.541Z,79.29
2017-05-21T00:18:55.442Z,79.1
2017-05-21T00:19:36.340Z,79.49
2017-05-21T00:20:17.212Z,79.87
2017-05-21T00:20:58.123Z,79.1
2017-05-21T00:21:39.010Z,79.68
2017-05-21T00:22:19.887Z,79.87
2017-05-21T00:23:00.819Z,79.39
2017-05-21T00:23:41.666Z,79.49
2017-05-21T00:24:22.551Z,79.77
2017-05-21T00:25:03.455Z,79.68
2017-05-21T00:25:44.333Z,79.96
2017-05-21T00:26:25.205Z,79.87
2017-05-21T00:27:06.095Z,79.58
2017-05-21T00:27:46.978Z,79.2
2017-05-21T00:28:27.887Z,79.68
2017-05-21T00:29:08.781Z,80.06
2017-05-21T00:29:49.677Z,80.25
2017-05-21T00:30:30.586Z,79.96
2017-05-21T00:31:11.479Z,80.06
2017-05-21T00:31:52.373Z,79.68
2017-05-21T00:32:33.262Z,80.44
2017-05-21T00:33:14.149Z,80.16
2017-05-21T00:33:55.037Z,80.54
2017-05-21T00:34:35.924Z,80.92
2017-05-21T00:35:16.808Z,80.98
2017-05-21T00:35:57.717Z,80.44
2017-05-21T00:36:38.597Z,80.44
2017-05-21T00:37:19.473Z,80.02
2017-05-21T00:38:00.367Z,79.77
2017-05-21T00:38:41.245Z,79.96
2017-05-21T00:39:22.136Z,79.87
2017-05-21T00:40:03.010Z,79.77
2017-05-21T00:40:43.896Z,79.96
2017-05-21T00:41:24.774Z,79.96
2017-05-21T00:42:05.683Z,79.87
2017-05-21T00:42:46.590Z,79.68
2017-05-21T00:43:27.485Z,79.49
2017-05-21T00:44:08.390Z,79.49
2017-05-21T00:44:50.057Z,79.49
2017-05-21T00:45:30.941Z,79.39
2017-05-21T00:46:11.828Z,79.29
2017-05-21T00:46:52.730Z,79.87
2017-05-21T00:47:33.620Z,79.58
2017-05-21T00:48:14.494Z,79.1
2017-05-21T00:48:55.370Z,79.68
2017-05-21T00:49:36.264Z,78.91
2017-05-21T00:50:17.150Z,78.81
2017-05-21T00:50:58.039Z,78.72
2017-05-21T00:51:38.925Z,79.29
2017-05-21T00:52:19.820Z,79.2
2017-05-21T00:53:00.708Z,79
2017-05-21T00:53:41.598Z,79
2017-05-21T00:54:22.528Z,78.91
2017-05-21T00:55:03.365Z,79.1
2017-05-21T00:55:44.247Z,79.77
2017-05-21T00:56:25.145Z,79.2
2017-05-21T00:57:06.031Z,79.77
2017-05-21T00:57:46.915Z,79.58
2017-05-21T00:58:27.802Z,79.68
2017-05-21T00:59:08.697Z,79.49
2017-05-21T00:59:49.592Z,79.49
2017-05-21T01:00:30.477Z,79.58
2017-05-21T01:01:11.365Z,80.69
2017-05-21T01:01:52.256Z,80.88
2017-05-21T01:02:33.145Z,80.98
2017-05-21T01:03:14.038Z,81.55
2017-05-21T01:03:54.926Z,80.88
2017-05-21T01:04:35.824Z,81.16
2017-05-21T01:05:16.702Z,81.45
2017-05-21T01:05:59.132Z,81.74
2017-05-21T01:06:40.013Z,82.12
2017-05-21T01:07:20.900Z,82.03
2017-05-21T01:08:01.795Z,82.7
2017-05-21T01:08:42.676Z,82.51
2017-05-21T01:09:23.563Z,82.7
2017-05-21T01:10:05.157Z,82.79
2017-05-21T01:10:46.074Z,82.98
2017-05-21T01:11:26.978Z,83.56
2017-05-21T01:12:07.896Z,83.17
2017-05-21T01:12:48.800Z,83.84
2017-05-21T01:13:29.690Z,83.56
2017-05-21T01:14:10.574Z,83.75
2017-05-21T01:14:51.464Z,83.9
2017-05-21T01:15:32.351Z,83.84
2017-05-21T01:16:13.237Z,83.65
2017-05-21T01:16:54.114Z,84.19
2017-05-21T01:17:35.004Z,84.09
2017-05-21T01:18:15.888Z,84.47
2017-05-21T01:18:56.779Z,84.95
2017-05-21T01:19:37.670Z,85.24
2017-05-21T01:20:18.558Z,85.24
2017-05-21T01:20:59.457Z,85.14
2017-05-21T01:21:40.350Z,84.85
2017-05-21T01:22:21.258Z,85.24
2017-05-21T01:23:02.116Z,85.05
2017-05-21T01:23:42.993Z,85.33
2017-05-21T01:24:23.878Z,84.66
2017-05-21T01:25:04.766Z,84.85
2017-05-21T01:25:45.667Z,84.85
2017-05-21T01:26:26.557Z,84.47
2017-05-21T01:27:07.447Z,84.76
2017-05-21T01:27:48.326Z,85.14
2017-05-21T01:28:29.210Z,85.05
2017-05-21T01:29:10.103Z,84.85
2017-05-21T01:29:51.026Z,85.05
2017-05-21T01:30:31.914Z,84.85
2017-05-21T01:31:12.812Z,84.66
2017-05-21T01:31:53.704Z,84.76
2017-05-21T01:32:34.597Z,84.38
2017-05-21T01:33:15.489Z,83.99
2017-05-21T01:33:56.433Z,84.09
2017-05-21T01:34:37.322Z,83.8
2017-05-21T01:35:18.197Z,83.7
2017-05-21T01:35:59.085Z,83.42
2017-05-21T01:36:39.983Z,83.51
2017-05-21T01:37:20.861Z,83.51
2017-05-21T01:38:01.754Z,82.84
2017-05-21T01:38:42.672Z,83.33
2017-05-21T01:39:23.537Z,83.61
2017-05-21T01:40:04.419Z,83.33
2017-05-21T01:40:45.308Z,83.61
2017-05-21T01:41:26.191Z,83.23
2017-05-21T01:42:07.072Z,82.84
2017-05-21T01:42:47.942Z,81.99
2017-05-21T01:43:28.836Z,82.37
2017-05-21T01:44:09.726Z,82.37
2017-05-21T01:44:50.616Z,82.28
2017-05-21T01:45:31.494Z,81.99
2017-05-21T01:46:12.378Z,82.37
2017-05-21T01:46:53.270Z,82.18
2017-05-21T01:47:34.170Z,82.18
2017-05-21T01:48:15.041Z,81.99
2017-05-21T01:48:55.941Z,81.89
2017-05-21T01:49:36.813Z,81.99
2017-05-21T01:50:17.682Z,82.37
2017-05-21T01:50:58.571Z,82.18
2017-05-21T01:51:39.471Z,82.18
2017-05-21T01:52:20.348Z,82.28
2017-05-21T01:53:01.218Z,82.18
2017-05-21T01:53:42.136Z,82.28
2017-05-21T01:54:23.013Z,82.08
2017-05-21T01:55:03.892Z,81.79
2017-05-21T01:55:44.772Z,82.37
2017-05-21T01:56:25.676Z,82.08
2017-05-21T01:57:06.563Z,81.79
2017-05-21T01:57:47.460Z,82.18
2017-05-21T01:58:28.344Z,82.28
2017-05-21T01:59:09.245Z,82.37
2017-05-21T01:59:50.154Z,81.89
2017-05-21T02:00:31.035Z,82.08
2017-05-21T02:01:11.922Z,82.37
2017-05-21T02:01:52.800Z,82.28
2017-05-21T02:02:33.700Z,81.89
2017-05-21T02:03:14.592Z,81.79
2017-05-21T02:03:55.481Z,81.41
2017-05-21T02:04:36.366Z,81.89
2017-05-21T02:05:17.250Z,81.51
2017-05-21T02:05:58.132Z,81.22
2017-05-21T02:06:39.024Z,81.41
2017-05-21T02:07:19.968Z,81.41
2017-05-21T02:09:50.073Z,81.51
2017-05-21T02:10:30.954Z,81.32
2017-05-21T02:11:11.841Z,81.41
2017-05-21T02:11:52.723Z,81.51
2017-05-21T02:12:33.613Z,80.65
2017-05-21T02:13:14.509Z,81.03
2017-05-21T02:13:55.399Z,80.46
2017-05-21T02:14:36.293Z,80.74
2017-05-21T02:15:17.205Z,79.98
2017-05-21T02:15:58.092Z,79.98
2017-05-21T02:16:38.988Z,79.88
2017-05-21T02:17:19.883Z,80.27
2017-05-21T02:18:00.769Z,80.07
2017-05-21T02:18:41.647Z,80.46
2017-05-21T02:19:22.627Z,80.55
2017-05-21T02:20:03.432Z,80.74
2017-05-21T02:20:44.317Z,80.93
2017-05-21T02:21:25.219Z,80.46
2017-05-21T02:22:06.105Z,81.13
2017-05-21T02:22:46.992Z,81.13
2017-05-21T02:23:27.898Z,80.93
2017-05-21T02:24:08.784Z,80.36
2017-05-21T02:24:49.666Z,80.65
2017-05-21T02:25:30.556Z,80.46
2017-05-21T02:26:11.447Z,80.36
2017-05-21T02:26:52.336Z,80.46
2017-05-21T02:27:33.214Z,80.84
2017-05-21T02:28:14.105Z,80.27
2017-05-21T02:28:54.993Z,80.55
2017-05-21T02:29:35.877Z,80.55
2017-05-21T02:30:16.797Z,80.07
2017-05-21T02:30:57.677Z,79.79
2017-05-21T02:31:38.564Z,80.46
2017-05-21T02:32:19.460Z,80.46
2017-05-21T02:33:00.316Z,79.79
2017-05-21T02:33:41.205Z,79.98
2017-05-21T02:34:22.088Z,80.27
2017-05-21T02:35:02.982Z,80.07
2017-05-21T02:35:43.866Z,80.27
2017-05-21T02:36:24.744Z,80.07
2017-05-21T02:37:05.632Z,80.27
2017-05-21T02:37:46.528Z,80.27
2017-05-21T02:38:27.405Z,80.27
2017-05-21T02:39:08.295Z,80.07
2017-05-21T02:39:49.188Z,79.88
2017-05-21T02:40:30.076Z,80.36
2017-05-21T02:41:10.955Z,80.36
2017-05-21T02:41:51.857Z,80.27
2017-05-21T02:42:32.749Z,80.07
2017-05-21T02:43:13.627Z,80.07
2017-05-21T02:43:54.519Z,79.98
2017-05-21T02:44:35.419Z,79.79
2017-05-21T02:45:16.299Z,79.79
2017-05-21T02:45:57.179Z,80.27
2017-05-21T02:46:38.062Z,79.98
2017-05-21T02:47:18.953Z,80.27
2017-05-21T02:47:59.850Z,80.55
2017-05-21T02:48:40.739Z,79.88
2017-05-21T02:49:21.630Z,80.55
2017-05-21T02:50:02.512Z,80.65
2017-05-21T02:50:43.397Z,80.46
2017-05-21T02:51:24.278Z,80.27
2017-05-21T02:52:05.163Z,80.46
2017-05-21T02:52:46.081Z,80.74
2017-05-21T02:53:26.975Z,80.55
2017-05-21T02:54:07.864Z,80.74
2017-05-21T02:54:48.753Z,80.84
2017-05-21T02:55:29.635Z,80.46
2017-05-21T02:56:10.524Z,81.09
2017-05-21T02:56:51.417Z,81.22
2017-05-21T02:57:32.304Z,81.13
2017-05-21T02:58:13.198Z,81.7
2017-05-21T02:58:54.076Z,81.51
2017-05-21T02:59:34.983Z,82.14
2017-05-21T03:00:15.873Z,82.14
2017-05-21T03:00:56.766Z,82.32
2017-05-21T03:01:37.661Z,81.95
2017-05-21T03:02:18.561Z,82.14
2017-05-21T03:02:59.439Z,82.37
2017-05-21T03:03:40.335Z,81.51
2017-05-21T03:04:21.229Z,81.7
2017-05-21T03:05:02.119Z,81.89
2017-05-21T03:05:43.007Z,82.18
2017-05-21T03:06:23.889Z,82.28
2017-05-21T03:07:04.773Z,82.42
2017-05-21T03:07:45.658Z,82.65
2017-05-21T03:08:26.549Z,83.38
2017-05-21T03:09:07.446Z,83.86
2017-05-21T03:09:48.334Z,84.14
2017-05-21T03:10:29.217Z,83.86
2017-05-21T03:11:10.105Z,83.86
2017-05-21T03:11:51.000Z,84.14
2017-05-21T03:12:31.879Z,83.95
2017-05-21T03:13:12.768Z,84.19
2017-05-21T03:13:53.662Z,84.33
2017-05-21T03:14:34.566Z,83.95
2017-05-21T03:15:15.464Z,83.86
2017-05-21T03:15:57.205Z,83.95
2017-05-21T03:16:38.111Z,84.52
2017-05-21T03:17:18.991Z,84.23
2017-05-21T03:17:59.889Z,84.62
2017-05-21T03:18:40.788Z,84.33
2017-05-21T03:19:21.667Z,84.43
2017-05-21T03:20:02.552Z,84.85
2017-05-21T03:20:43.427Z,85
2017-05-21T03:21:24.318Z,85.24
2017-05-21T03:23:17.747Z,85.33
2017-05-21T03:23:58.637Z,85.58
2017-05-21T03:24:39.519Z,85.48
2017-05-21T03:25:20.401Z,85.38
2017-05-21T03:26:01.283Z,85.58
2017-05-21T03:26:42.175Z,85.19
2017-05-21T03:27:23.072Z,85.29
2017-05-21T03:28:03.957Z,85.67
2017-05-21T03:28:44.845Z,86.34
2017-05-21T03:29:25.724Z,85.58
2017-05-21T03:30:06.620Z,86.05
2017-05-21T03:30:47.493Z,85.96
2017-05-21T03:31:28.381Z,85.96
2017-05-21T03:32:09.265Z,86.05
2017-05-21T03:32:50.138Z,86.63
2017-05-21T03:33:31.034Z,86.43
2017-05-21T03:34:11.919Z,86.43
2017-05-21T03:34:52.811Z,86.82
2017-05-21T03:35:33.711Z,86.91
2017-05-21T03:36:14.607Z,86.63
2017-05-21T03:36:55.498Z,86.82
2017-05-21T03:37:36.385Z,85.96
2017-05-21T03:38:17.280Z,86.15
2017-05-21T03:38:58.174Z,86.91
2017-05-21T03:39:39.055Z,86.82
2017-05-21T03:40:19.940Z,86.63
2017-05-21T03:41:00.829Z,86.34
2017-05-21T03:41:41.711Z,86.43
2017-05-21T03:42:22.598Z,86.15
2017-05-21T03:43:03.482Z,85.96
2017-05-21T03:43:44.354Z,85.58
2017-05-21T03:44:25.245Z,85.86
2017-05-21T03:45:06.133Z,85.58
2017-05-21T03:45:47.042Z,85.38
2017-05-21T03:46:27.893Z,85.58
2017-05-21T03:47:08.780Z,85.38
2017-05-21T03:47:49.661Z,85.29
2017-05-21T03:48:30.546Z,84.72
2017-05-21T03:49:11.428Z,85.77
2017-05-21T03:49:52.313Z,85.1
2017-05-21T03:50:33.199Z,85.86
2017-05-21T03:51:14.081Z,85.58
2017-05-21T03:51:54.988Z,84.72
2017-05-21T03:52:35.878Z,84.52
2017-05-21T03:53:16.776Z,84.43
2017-05-21T03:53:57.668Z,84.62
2017-05-21T03:54:38.611Z,84.81
2017-05-21T03:55:19.509Z,85
2017-05-21T03:56:00.394Z,84.91
2017-05-21T03:56:41.264Z,84.91
2017-05-21T03:57:22.154Z,84.62
2017-05-21T03:58:03.042Z,85.1
2017-05-21T03:58:43.930Z,85.1
2017-05-21T03:59:24.828Z,85.29
2017-05-21T04:00:05.720Z,84.72
2017-05-21T04:00:46.609Z,84.81
2017-05-21T04:01:27.487Z,84.91
2017-05-21T04:02:08.378Z,84.62
2017-05-21T04:02:49.289Z,85
2017-05-21T04:03:30.176Z,84.62
2017-05-21T04:04:11.067Z,84.91
2017-05-21T04:04:51.956Z,84.81
2017-05-21T04:05:32.855Z,84.52
2017-05-21T04:06:13.740Z,84.62
2017-05-21T04:06:54.632Z,84.52
2017-05-21T04:07:35.528Z,84.43
2017-05-21T04:08:16.407Z,84.23
2017-05-21T04:08:57.295Z,83.95
2017-05-21T04:09:38.184Z,84.23
2017-05-21T04:10:19.079Z,83.51
2017-05-21T04:10:59.967Z,84.05
2017-05-21T04:11:40.870Z,83.95
2017-05-21T04:12:21.758Z,83.95
2017-05-21T04:13:02.652Z,84.05
2017-05-21T04:13:43.550Z,83.86
2017-05-21T04:14:24.418Z,83.95
2017-05-21T04:15:05.293Z,84.33
2017-05-21T04:15:46.186Z,84.05
2017-05-21T04:16:27.076Z,84.33
2017-05-21T04:17:07.963Z,83.76
2017-05-21T04:17:48.863Z,84.05
2017-05-21T04:18:29.763Z,84.52
2017-05-21T04:19:10.666Z,83.95
2017-05-21T04:19:51.551Z,84.52
2017-05-21T04:20:32.461Z,84.14
2017-05-21T04:21:13.356Z,84.33
2017-05-21T04:21:54.243Z,83.86
2017-05-21T04:22:35.125Z,84.33
2017-05-21T04:23:15.998Z,84.05
2017-05-21T04:23:56.891Z,83.95
2017-05-21T04:24:37.777Z,84.14
2017-05-21T04:25:18.655Z,84.05
2017-05-21T04:25:59.562Z,84.14
2017-05-21T04:26:40.451Z,84.05
2017-05-21T04:27:21.339Z,83.57
2017-05-21T04:28:02.231Z,83.28
2017-05-21T04:28:43.118Z,83.18
2017-05-21T04:29:24.000Z,82.9
2017-05-21T04:30:04.906Z,83.38
2017-05-21T04:30:45.787Z,83.76
2017-05-21T04:31:26.676Z,83.28
2017-05-21T04:32:07.563Z,83.86
2017-05-21T04:32:48.459Z,83.47
2017-05-21T04:33:29.340Z,83.57
2017-05-21T04:34:10.234Z,83.67
2017-05-21T04:34:51.120Z,83.57
2017-05-21T04:35:32.015Z,83
2017-05-21T04:36:12.914Z,83.47
2017-05-21T04:36:53.808Z,82.42
2017-05-21T04:37:34.710Z,83.04
2017-05-21T04:38:15.595Z,82.9
2017-05-21T04:38:56.484Z,82.94
2017-05-21T04:39:37.370Z,82.9
2017-05-21T04:40:18.260Z,82.75
2017-05-21T04:40:59.141Z,82.75
2017-05-21T04:41:40.032Z,82.84
2017-05-21T04:42:20.920Z,82.56
2017-05-21T04:43:01.801Z,82.42
2017-05-21T04:43:42.693Z,83
2017-05-21T04:44:23.588Z,82.56
2017-05-21T04:45:04.479Z,82.65
2017-05-21T04:45:45.371Z,81.99
2017-05-21T04:46:26.255Z,82.37
2017-05-21T04:47:07.146Z,82.46
2017-05-21T04:47:48.035Z,82.65
2017-05-21T04:48:28.926Z,82.46
2017-05-21T04:49:09.819Z,82.75
2017-05-21T04:49:50.707Z,82.65
2017-05-21T04:50:31.608Z,82.65
2017-05-21T04:51:12.496Z,82.56
2017-05-21T04:51:53.387Z,82.56
2017-05-21T04:52:34.277Z,82.75
2017-05-21T04:53:15.165Z,82.9
2017-05-21T04:53:56.061Z,82.94
2017-05-21T04:54:36.948Z,82.46
2017-05-21T04:55:17.840Z,82.08
2017-05-21T04:55:58.733Z,82.37
2017-05-21T04:56:39.643Z,81.89
2017-05-21T04:57:20.535Z,81.79
2017-05-21T04:58:01.427Z,82.56
2017-05-21T04:58:42.320Z,82.28
2017-05-21T04:59:23.204Z,82.08
2017-05-21T05:00:04.089Z,81.6
2017-05-21T05:00:44.989Z,81.32
2017-05-21T05:01:25.869Z,81.13
2017-05-21T05:02:06.742Z,81.32
2017-05-21T05:02:47.645Z,81.99
2017-05-21T05:03:28.543Z,82.08
2017-05-21T05:04:09.430Z,82.37
2017-05-21T05:04:50.327Z,81.89
2017-05-21T05:05:31.205Z,81.7
2017-05-21T05:06:12.083Z,81.55
2017-05-21T05:06:52.972Z,81.03
2017-05-21T05:07:33.863Z,80.3
2017-05-21T05:08:14.755Z,80.5
2017-05-21T05:08:55.647Z,80.98
2017-05-21T05:09:36.540Z,80.46
2017-05-21T05:10:17.428Z,81.07
2017-05-21T05:10:58.334Z,81.16
2017-05-21T05:11:39.204Z,80.98
2017-05-21T05:12:20.090Z,80.5
2017-05-21T05:13:01.022Z,80.11
2017-05-21T05:13:41.917Z,79.93
2017-05-21T05:14:22.792Z,80.5
2017-05-21T05:15:03.732Z,79.54
2017-05-21T05:15:44.633Z,80.02
2017-05-21T05:16:25.519Z,80.21
2017-05-21T05:17:06.411Z,80.02
2017-05-21T05:17:47.343Z,80.21
2017-05-21T05:18:28.244Z,80.21
2017-05-21T05:19:09.123Z,80.02
2017-05-21T05:19:50.014Z,79.54
2017-05-21T05:20:30.905Z,79.35
2017-05-21T05:21:11.831Z,79.64
2017-05-21T05:21:52.728Z,79.54
2017-05-21T05:22:33.616Z,79.93
2017-05-21T05:23:14.502Z,79.73
2017-05-21T05:23:55.393Z,79.35
2017-05-21T05:24:36.302Z,79.44
2017-05-21T05:25:17.212Z,79.06
2017-05-21T05:25:58.114Z,79.64
2017-05-21T05:26:39.000Z,79.64
2017-05-21T05:27:19.889Z,79.06
2017-05-21T05:28:00.787Z,79.16
2017-05-21T05:28:41.673Z,79.25
2017-05-21T05:29:22.564Z,79.44
2017-05-21T05:30:03.454Z,78.68
2017-05-21T05:30:44.624Z,79.35
2017-05-21T05:31:25.372Z,78.53
2017-05-21T05:32:06.273Z,77.57
2017-05-21T05:32:47.127Z,77.86
2017-05-21T05:33:28.012Z,77.38
2017-05-21T05:34:08.900Z,77.48
2017-05-21T05:34:49.801Z,76.9
2017-05-21T05:35:30.690Z,77
2017-05-21T05:36:11.579Z,77.48
2017-05-21T05:36:52.477Z,77.95
2017-05-21T05:37:33.365Z,77.57
2017-05-21T05:38:14.243Z,77.28
2017-05-21T05:38:55.123Z,77
2017-05-21T05:39:36.026Z,76.81
2017-05-21T05:40:16.928Z,76.52
2017-05-21T05:40:57.828Z,76.62
2017-05-21T05:41:38.717Z,76.9
2017-05-21T05:42:19.624Z,76.42
2017-05-21T05:43:00.506Z,76.81
2017-05-21T05:43:41.396Z,76.33
2017-05-21T05:44:22.286Z,76.14
2017-05-21T05:45:03.172Z,75.95
2017-05-21T05:45:44.037Z,75.66
2017-05-21T05:46:24.930Z,75.98
2017-05-21T05:47:05.823Z,76.23
2017-05-21T05:47:46.711Z,76.75
2017-05-21T05:48:27.594Z,76.42
2017-05-21T05:49:08.509Z,76.18
2017-05-21T05:49:49.401Z,75.6
2017-05-21T05:50:30.293Z,75.51
2017-05-21T05:51:11.187Z,75.22
2017-05-21T05:51:52.076Z,75.6
2017-05-21T05:52:32.975Z,75.22
2017-05-21T05:53:13.852Z,75.7
2017-05-21T05:53:54.742Z,75.31
2017-05-21T05:54:35.642Z,74.84
2017-05-21T05:55:16.519Z,75.22
2017-05-21T05:55:57.415Z,75.22
2017-05-21T05:56:38.314Z,73.97
2017-05-21T05:57:19.200Z,73.97
2017-05-21T05:58:00.087Z,73.97
2017-05-21T05:58:41.020Z,73.97
2017-05-21T05:59:21.898Z,73.97
2017-05-21T06:00:02.789Z,73.69
2017-05-21T06:00:43.681Z,73.11
2017-05-21T06:01:24.572Z,73.4
2017-05-21T06:02:05.456Z,73.02
2017-05-21T06:02:46.353Z,72.83
2017-05-21T06:03:27.242Z,72.09
2017-05-21T06:04:08.124Z,71.62
2017-05-21T06:04:49.016Z,71.04
2017-05-21T06:05:29.907Z,70.76
2017-05-21T06:06:10.805Z,71.04
2017-05-21T06:06:51.699Z,71.48
2017-05-21T06:07:32.585Z,71.68
2017-05-21T06:08:13.481Z,71.58
2017-05-21T06:08:54.369Z,71.3
2017-05-21T06:09:35.260Z,71.3
2017-05-21T06:10:16.147Z,72.06
2017-05-21T06:10:57.054Z,71.48
2017-05-21T06:11:37.948Z,71.58
2017-05-21T06:12:18.828Z,70.56
2017-05-21T06:12:59.720Z,70.85
2017-05-21T06:13:40.628Z,70.47
2017-05-21T06:14:21.538Z,70.09
2017-05-21T06:15:02.434Z,69.54
2017-05-21T06:15:43.326Z,68.78
2017-05-21T06:16:24.214Z,68.49
2017-05-21T06:17:05.125Z,68.4
2017-05-21T06:17:46.042Z,68.11
2017-05-21T06:18:26.929Z,68.78
2017-05-21T06:19:07.818Z,68.43
2017-05-21T06:19:48.710Z,66.74
2017-05-21T06:20:29.609Z,66.06
2017-05-21T06:21:10.507Z,64.76
2017-05-21T06:21:51.402Z,63.12
2017-05-21T06:22:32.991Z,62.07
2017-05-21T06:23:13.885Z,61.62
2017-05-21T06:23:54.779Z,61.24
2017-05-21T06:24:35.672Z,61.05
2017-05-21T06:25:16.567Z,60.4
2017-05-21T06:25:57.463Z,59.54
2017-05-21T06:26:38.361Z,59.09
2017-05-21T06:27:19.267Z,59.19
2017-05-21T06:28:00.154Z,57.58
2017-05-21T06:28:41.056Z,56.87
2017-05-21T06:29:21.961Z,55.71
2017-05-21T06:30:02.857Z,54.85
2017-05-21T06:30:43.749Z,53.65
2017-05-21T06:31:24.651Z,51.43
2017-05-21T06:32:05.551Z,51.68
2017-05-21T06:32:46.439Z,50.62
2017-05-21T06:33:27.354Z,50.45
2017-05-21T06:34:08.242Z,53.21
2017-05-21T06:34:49.144Z,52.75
2017-05-21T06:35:30.042Z,51.17
2017-05-21T06:36:10.935Z,50.04
2017-05-21T06:36:51.844Z,48.9
2017-05-21T06:37:32.747Z,48.23
2017-05-21T06:38:13.646Z,48.93
2017-05-21T06:38:54.542Z,51.12
2017-05-21T06:39:35.456Z,51.5
2017-05-21T06:40:16.375Z,51.76
2017-05-21T06:40:57.272Z,53.64
2017-05-21T06:41:38.181Z,55.18
2017-05-21T06:42:19.089Z,56.21
2017-05-21T06:42:59.990Z,57.26
2017-05-21T06:43:40.896Z,56.52
2017-05-21T06:44:21.797Z,54.2
2017-05-21T06:45:02.703Z,51.07
2017-05-21T06:45:43.611Z,49.68
2017-05-21T06:46:24.535Z,47.82
2017-05-21T06:47:05.444Z,49.79
2017-05-21T06:47:46.343Z,49.53
2017-05-21T06:48:27.275Z,50.54
2017-05-21T06:49:08.177Z,51.53
2017-05-21T06:49:49.110Z,51.53
2017-05-21T06:50:30.051Z,49.73
2017-05-21T06:51:11.009Z,50.25
2017-05-21T06:51:51.871Z,49.6
2017-05-21T06:52:32.771Z,49.96
2017-05-21T06:53:13.682Z,50.47
2017-05-21T06:53:54.580Z,48.23
2017-05-21T06:54:35.485Z,46.33
2017-05-21T06:55:16.386Z,44.8
2017-05-21T06:55:57.294Z,46.18
2017-05-21T06:56:38.184Z,46.95
2017-05-21T06:57:19.082Z,46.25
2017-05-21T06:58:00.001Z,44.9
2017-05-21T06:58:40.916Z,44.24
2017-05-21T06:59:21.814Z,44.7
2017-05-21T07:00:02.719Z,43.76
2017-05-21T07:00:43.617Z,43.64
2017-05-21T07:01:24.590Z,43.64
2017-05-21T07:02:05.446Z,46.68
2017-05-21T07:02:46.341Z,44.76
2017-05-21T07:03:27.265Z,46.15
2017-05-21T07:04:08.157Z,46.33
2017-05-21T07:04:49.069Z,44.01
2017-05-21T07:05:29.976Z,43.81
2017-05-21T07:06:10.900Z,45.77
2017-05-21T07:06:51.805Z,47.19
2017-05-21T07:07:32.701Z,46.76
2017-05-21T07:08:13.601Z,45
2017-05-21T07:08:54.506Z,45.53
2017-05-21T07:09:35.481Z,44.01
2017-05-21T07:10:16.390Z,43.54
2017-05-21T07:10:57.281Z,42.41
2017-05-21T07:11:38.180Z,40.98
2017-05-21T07:12:19.098Z,41
2017-05-21T07:13:00.002Z,45.14
2017-05-21T07:13:40.908Z,46
2017-05-21T07:14:21.825Z,43.71
2017-05-21T07:15:02.726Z,42.24
2017-05-21T07:15:43.634Z,41.83
2017-05-21T07:16:24.539Z,43.72
2017-05-21T07:17:05.447Z,43.79
2017-05-21T07:17:46.364Z,45.89
2017-05-21T07:18:27.275Z,48.06
2017-05-21T07:19:08.181Z,47.03
2017-05-21T07:19:49.094Z,46.66
2017-05-21T07:20:30.000Z,46.47
2017-05-21T07:21:10.911Z,46.56
2017-05-21T07:21:51.821Z,46.37
2017-05-21T07:22:32.725Z,47.77
2017-05-21T07:23:13.639Z,44.78
2017-05-21T07:23:54.546Z,45.14
2017-05-21T07:24:35.450Z,46.01
2017-05-21T07:25:16.391Z,45.45
2017-05-21T07:25:57.302Z,44.29
2017-05-21T07:26:38.191Z,43.16
2017-05-21T07:27:19.090Z,42.21
2017-05-21T07:28:00.038Z,41.44
2017-05-21T07:28:40.929Z,43.62
2017-05-21T07:29:21.814Z,44.62
2017-05-21T07:30:02.725Z,46.06
2017-05-21T07:30:43.635Z,46.4
2017-05-21T07:31:24.547Z,45.03
2017-05-21T07:32:05.457Z,43.35
2017-05-21T07:32:46.349Z,41.69
2017-05-21T07:33:27.258Z,44.56
2017-05-21T07:34:08.165Z,43.72
2017-05-21T07:34:49.068Z,44.68
2017-05-21T07:35:29.975Z,44.46
2017-05-21T07:36:10.878Z,43.72
2017-05-21T07:36:51.781Z,43.16
2017-05-21T07:37:32.700Z,42
2017-05-21T07:38:13.604Z,41.05
2017-05-21T07:38:54.507Z,42
2017-05-21T07:39:35.416Z,43.14
2017-05-21T07:40:16.311Z,43.48
2017-05-21T07:40:57.239Z,44.66
2017-05-21T07:41:38.143Z,44.29
2017-05-21T07:42:19.052Z,43.57
2017-05-21T07:42:59.939Z,42.02
2017-05-21T07:43:40.853Z,40.42
2017-05-21T07:44:21.777Z,39.9
2017-05-21T07:45:02.683Z,41.69
2017-05-21T07:45:43.584Z,43.72
2017-05-21T07:46:24.491Z,42.29
2017-05-21T07:47:05.407Z,41.25
2017-05-21T07:47:46.311Z,42
2017-05-21T07:48:27.226Z,43.49
2017-05-21T07:49:08.141Z,40.9
2017-05-21T07:49:49.029Z,39.67
2017-05-21T07:50:29.969Z,39.55
2017-05-21T07:51:10.849Z,40.03
2017-05-21T07:51:51.761Z,40.01
2017-05-21T07:52:32.644Z,42
2017-05-21T07:53:13.550Z,41.93
2017-05-21T07:53:54.447Z,39.92
2017-05-21T07:54:35.336Z,41.09
2017-05-21T07:55:16.228Z,40.96
2017-05-21T07:55:57.123Z,41.27
2017-05-21T07:56:38.033Z,41.05
2017-05-21T07:57:18.944Z,40.92
2017-05-21T07:57:59.834Z,42.18
2017-05-21T07:58:40.740Z,41.03
2017-05-21T07:59:21.648Z,41.78
2017-05-21T08:00:02.565Z,42.56
2017-05-21T08:00:43.482Z,41.3
2017-05-21T08:01:24.395Z,40.94
2017-05-21T08:02:05.258Z,40.92
2017-05-21T08:02:46.184Z,41.35
2017-05-21T08:03:27.107Z,40.98
2017-05-21T08:04:08.037Z,39.41
2017-05-21T08:04:48.966Z,40.03
2017-05-21T08:05:29.871Z,40.75
2017-05-21T08:06:10.797Z,41.88
2017-05-21T08:06:51.736Z,41.09
2017-05-21T08:07:32.645Z,40.94
2017-05-21T08:08:13.547Z,39.72
2017-05-21T08:08:54.453Z,38.31
2017-05-21T08:09:35.362Z,38.02
2017-05-21T08:10:16.294Z,38.83
2017-05-21T08:10:57.210Z,39.61
2017-05-21T08:11:38.107Z,40.63
2017-05-21T08:12:19.020Z,40.92
2017-05-21T08:12:59.940Z,41.36
2017-05-21T08:13:40.875Z,42.02
2017-05-21T08:14:21.774Z,42.97
2017-05-21T08:15:02.687Z,43.65
2017-05-21T08:15:43.596Z,42.46
2017-05-21T08:16:24.509Z,39.84
2017-05-21T08:17:05.423Z,40.86
2017-05-21T08:17:46.332Z,42.02
2017-05-21T08:18:27.236Z,42.03
2017-05-21T08:19:08.137Z,42.03
2017-05-21T08:19:49.055Z,41.11
2017-05-21T08:20:29.965Z,40.9
2017-05-21T08:21:10.873Z,40.63
2017-05-21T08:21:51.773Z,41.03
2017-05-21T08:22:32.686Z,39.51
2017-05-21T08:23:13.590Z,39.12
2017-05-21T08:23:54.510Z,38.64
2017-05-21T08:24:35.414Z,38.89
2017-05-21T08:25:16.323Z,36.7
2017-05-21T08:25:57.226Z,35.5
2017-05-21T08:26:38.137Z,34.77
2017-05-21T08:27:19.060Z,34.63
2017-05-21T08:27:59.970Z,34.91
2017-05-21T08:28:40.864Z,35.68
2017-05-21T08:29:21.772Z,37.54
2017-05-21T08:30:02.680Z,39.45
2017-05-21T08:30:43.591Z,40.61
2017-05-21T08:31:24.512Z,38.35
2017-05-21T08:32:05.420Z,37.79
2017-05-21T08:32:46.366Z,37.65
2017-05-21T08:33:27.266Z,38.12
2017-05-21T08:34:08.159Z,40.05
2017-05-21T08:34:49.085Z,37.79
2017-05-21T08:35:29.991Z,36.58
2017-05-21T08:36:10.905Z,35.68
2017-05-21T08:36:51.812Z,34.7
2017-05-21T08:37:32.713Z,36.5
2017-05-21T08:38:13.632Z,37.17
2017-05-21T08:38:54.531Z,37.35
2017-05-21T08:39:35.422Z,38.12
2017-05-21T08:40:16.333Z,37.95
2017-05-21T08:40:57.233Z,37.54
2017-05-21T08:41:38.151Z,37.08
2017-05-21T08:42:19.055Z,35.84
2017-05-21T08:42:59.985Z,36.42
2017-05-21T08:43:40.902Z,37.83
2017-05-21T08:44:21.818Z,39.16
2017-05-21T08:45:02.739Z,38.6
2017-05-21T08:45:43.658Z,36.8
2017-05-21T08:46:24.576Z,36.59
2017-05-21T08:47:05.505Z,36.61
2017-05-21T08:47:46.417Z,35.95
2017-05-21T08:48:27.342Z,36.76
2017-05-21T08:49:08.258Z,33.14
2017-05-21T08:49:49.188Z,32.15
2017-05-21T08:50:30.142Z,32.94
2017-05-21T08:51:11.053Z,32.99
2017-05-21T08:51:51.972Z,34.15
2017-05-21T08:52:32.878Z,31.99